EGBJ

Gloucestershire Airport

Staverton, United Kingdom
METAR EGBJ 131920Z 00000KT CAVOK 02/M02 Q1019
Observed Flight Rules
Dec-13 @ 19:20 UTC (8 hours ago) Visual Flight Rules
Visibility Clouds
10,000+ meters
  • Clear skies
Temperatures Readings
Current 2°C / 36°F
Dewpoint -2°C / 28°F
Humidity 75%
Altimeter 30.09" Hg
Pressure 1019 hPa
Elevation 29
METAR EGBJ 131920Z 00000KT CAVOK 02/M02 Q1019
Observed Flight Rules
Dec-13 @ 19:20 UTC
(8 hours ago)
VFR
Clouds
  • Clear skies
Temperature Dewpoint
2°C / 36°F -2°C / 28°F
Humidity Altimeter Pressure
75% 30.09" Hg 1019 hPa